sensor_id;sensor_type;location;lat;lon;timestamp;pressure;altitude;pressure_sealevel;temperature;humidity
48200;BME280;33990;44.602;10.976;2022-11-06T00:01:57;101139.66;;;19.54;53.04
48200;BME280;33990;44.602;10.976;2022-11-06T00:04:33;101136.97;;;19.54;53.21
48200;BME280;33990;44.602;10.976;2022-11-06T00:07:01;101143.34;;;19.53;53.40
48200;BME280;33990;44.602;10.976;2022-11-06T00:09:28;101137.97;;;19.53;53.19
48200;BME280;33990;44.602;10.976;2022-11-06T00:11:56;101138.94;;;19.52;53.40
48200;BME280;33990;44.602;10.976;2022-11-06T00:14:23;101136.25;;;19.52;53.23
48200;BME280;33990;44.602;10.976;2022-11-06T00:16:51;101138.94;;;19.52;53.28
48200;BME280;33990;44.602;10.976;2022-11-06T00:19:18;101141.59;;;19.52;53.33
48200;BME280;33990;44.602;10.976;2022-11-06T00:21:45;101142.59;;;19.51;53.26
48200;BME280;33990;44.602;10.976;2022-11-06T00:24:13;101135.38;;;19.51;53.28
48200;BME280;33990;44.602;10.976;2022-11-06T00:26:42;101130.16;;;19.50;53.24
48200;BME280;33990;44.602;10.976;2022-11-06T00:29:13;101128.31;;;19.50;53.17
48200;BME280;33990;44.602;10.976;2022-11-06T00:31:40;101129.16;;;19.51;53.12
48200;BME280;33990;44.602;10.976;2022-11-06T00:34:08;101140.91;;;19.50;53.03
48200;BME280;33990;44.602;10.976;2022-11-06T00:36:37;101132.00;;;19.49;52.94
48200;BME280;33990;44.602;10.976;2022-11-06T00:39:04;101135.53;;;19.50;53.15
48200;BME280;33990;44.602;10.976;2022-11-06T00:41:31;101131.16;;;19.49;53.05
48200;BME280;33990;44.602;10.976;2022-11-06T00:44:00;101132.00;;;19.49;53.02
48200;BME280;33990;44.602;10.976;2022-11-06T00:46:28;101130.25;;;19.48;53.14
48200;BME280;33990;44.602;10.976;2022-11-06T00:48:55;101132.09;;;19.48;52.93
48200;BME280;33990;44.602;10.976;2022-11-06T00:51:29;101141.88;;;19.49;52.99
48200;BME280;33990;44.602;10.976;2022-11-06T00:54:01;101142.00;;;19.47;52.92
48200;BME280;33990;44.602;10.976;2022-11-06T00:56:29;101148.22;;;19.48;52.99
48200;BME280;33990;44.602;10.976;2022-11-06T00:58:58;101153.72;;;19.46;53.03
48200;BME280;33990;44.602;10.976;2022-11-06T01:01:29;101151.03;;;19.46;52.98
48200;BME280;33990;44.602;10.976;2022-11-06T01:03:59;101161.78;;;19.46;53.01
48200;BME280;33990;44.602;10.976;2022-11-06T01:06:29;101159.94;;;19.47;52.95
48200;BME280;33990;44.602;10.976;2022-11-06T01:08:57;101168.13;;;19.45;52.95
48200;BME280;33990;44.602;10.976;2022-11-06T01:11:27;101168.97;;;19.46;52.92
48200;BME280;33990;44.602;10.976;2022-11-06T01:14:14;101167.28;;;19.45;53.05
48200;BME280;33990;44.602;10.976;2022-11-06T01:16:42;101176.19;;;19.45;53.10
48200;BME280;33990;44.602;10.976;2022-11-06T01:19:13;101168.13;;;19.45;53.18
48200;BME280;33990;44.602;10.976;2022-11-06T01:21:43;101167.28;;;19.45;53.19
48200;BME280;33990;44.602;10.976;2022-11-06T01:24:16;101171.75;;;19.44;53.13
48200;BME280;33990;44.602;10.976;2022-11-06T01:26:44;101171.75;;;19.44;53.21
48200;BME280;33990;44.602;10.976;2022-11-06T01:29:32;101166.53;;;19.43;53.10
48200;BME280;33990;44.602;10.976;2022-11-06T01:32:00;101176.28;;;19.44;53.33
48200;BME280;33990;44.602;10.976;2022-11-06T01:34:27;101177.28;;;19.43;53.20
48200;BME280;33990;44.602;10.976;2022-11-06T01:36:55;101180.81;;;19.43;53.35
48200;BME280;33990;44.602;10.976;2022-11-06T01:39:22;101178.25;;;19.42;53.14
48200;BME280;33990;44.602;10.976;2022-11-06T01:41:51;101177.28;;;19.43;53.02
48200;BME280;33990;44.602;10.976;2022-11-06T01:47:27;101177.28;;;19.43;53.09
48200;BME280;33990;44.602;10.976;2022-11-06T01:49:59;101176.41;;;19.42;53.06
48200;BME280;33990;44.602;10.976;2022-11-06T01:52:29;101178.25;;;19.42;53.05
48200;BME280;33990;44.602;10.976;2022-11-06T01:55:10;101167.53;;;19.42;52.92
48200;BME280;33990;44.602;10.976;2022-11-06T01:57:38;101171.19;;;19.41;53.07
48200;BME280;33990;44.602;10.976;2022-11-06T02:00:06;101168.50;;;19.41;52.69
48200;BME280;33990;44.602;10.976;2022-11-06T02:02:35;101161.31;;;19.41;52.86
48200;BME280;33990;44.602;10.976;2022-11-06T02:05:04;101156.88;;;19.40;52.76
48200;BME280;33990;44.602;10.976;2022-11-06T02:07:32;101151.50;;;19.40;52.82
48200;BME280;33990;44.602;10.976;2022-11-06T02:10:00;101158.72;;;19.40;52.62
48200;BME280;33990;44.602;10.976;2022-11-06T02:15:43;101156.03;;;19.40;52.66
48200;BME280;33990;44.602;10.976;2022-11-06T02:29:48;101148.25;;;19.37;52.66
48200;BME280;33990;44.602;10.976;2022-11-06T02:32:43;101146.53;;;19.36;52.45
48200;BME280;33990;44.602;10.976;2022-11-06T02:37:50;101143.84;;;19.36;52.46
48200;BME280;33990;44.602;10.976;2022-11-06T02:40:21;101136.78;;;19.35;52.80
48200;BME280;33990;44.602;10.976;2022-11-06T02:42:52;101146.66;;;19.34;52.26
48200;BME280;33990;44.602;10.976;2022-11-06T02:45:22;101154.72;;;19.34;52.57
48200;BME280;33990;44.602;10.976;2022-11-06T02:47:51;101150.31;;;19.33;52.31
48200;BME280;33990;44.602;10.976;2022-11-06T02:50:25;101164.59;;;19.34;52.33
48200;BME280;33990;44.602;10.976;2022-11-06T02:52:56;101159.22;;;19.34;52.46
48200;BME280;33990;44.602;10.976;2022-11-06T02:55:29;101163.75;;;19.33;52.36
48200;BME280;33990;44.602;10.976;2022-11-06T02:58:01;101157.53;;;19.33;52.28
48200;BME280;33990;44.602;10.976;2022-11-06T03:00:31;101164.59;;;19.34;52.75
48200;BME280;33990;44.602;10.976;2022-11-06T03:03:04;101157.53;;;19.33;52.32
48200;BME280;33990;44.602;10.976;2022-11-06T03:05:34;101171.81;;;19.33;52.20
48200;BME280;33990;44.602;10.976;2022-11-06T03:10:56;101165.59;;;19.33;52.23
48200;BME280;33990;44.602;10.976;2022-11-06T03:13:55;101167.38;;;19.32;52.44
48200;BME280;33990;44.602;10.976;2022-11-06T03:16:47;101186.19;;;19.32;52.06
48200;BME280;33990;44.602;10.976;2022-11-06T03:22:16;101178.13;;;19.32;51.96
48200;BME280;33990;44.602;10.976;2022-11-06T03:25:17;101180.94;;;19.31;52.00
48200;BME280;33990;44.602;10.976;2022-11-06T03:28:04;101176.44;;;19.31;51.91
48200;BME280;33990;44.602;10.976;2022-11-06T03:30:35;101179.09;;;19.31;51.97
48200;BME280;33990;44.602;10.976;2022-11-06T03:33:18;101182.66;;;19.32;52.00
48200;BME280;33990;44.602;10.976;2022-11-06T03:35:50;101197.91;;;19.31;51.93
48200;BME280;33990;44.602;10.976;2022-11-06T03:38:29;101204.25;;;19.30;52.01
48200;BME280;33990;44.602;10.976;2022-11-06T03:41:10;101205.09;;;19.31;52.19
48200;BME280;33990;44.602;10.976;2022-11-06T03:43:41;101206.09;;;19.30;52.27
48200;BME280;33990;44.602;10.976;2022-11-06T03:46:15;101211.47;;;19.30;52.13
48200;BME280;33990;44.602;10.976;2022-11-06T03:48:51;101214.16;;;19.30;52.12
48200;BME280;33990;44.602;10.976;2022-11-06T03:53:52;101215.13;;;19.29;51.90
48200;BME280;33990;44.602;10.976;2022-11-06T03:56:29;101217.81;;;19.29;52.17
48200;BME280;33990;44.602;10.976;2022-11-06T03:59:02;101221.44;;;19.27;52.08
48200;BME280;33990;44.602;10.976;2022-11-06T04:01:34;101219.63;;;19.28;52.18
48200;BME280;33990;44.602;10.976;2022-11-06T04:09:20;101226.81;;;19.27;52.33
48200;BME280;33990;44.602;10.976;2022-11-06T04:12:08;101234.03;;;19.27;52.13
48200;BME280;33990;44.602;10.976;2022-11-06T04:14:57;101234.03;;;19.27;52.04
48200;BME280;33990;44.602;10.976;2022-11-06T04:17:27;101231.47;;;19.25;51.98
48200;BME280;33990;44.602;10.976;2022-11-06T04:19:59;101235.00;;;19.26;51.93
48200;BME280;33990;44.602;10.976;2022-11-06T04:22:33;101236.00;;;19.25;52.08
48200;BME280;33990;44.602;10.976;2022-11-06T04:36:12;101255.88;;;19.22;51.93
48200;BME280;33990;44.602;10.976;2022-11-06T04:38:59;101255.00;;;19.22;51.82
48200;BME280;33990;44.602;10.976;2022-11-06T04:44:31;101247.81;;;19.22;51.88
48200;BME280;33990;44.602;10.976;2022-11-06T04:47:11;101259.53;;;19.21;51.82
48200;BME280;33990;44.602;10.976;2022-11-06T04:49:41;101251.47;;;19.21;51.74
48200;BME280;33990;44.602;10.976;2022-11-06T04:52:14;101262.22;;;19.21;51.81
48200;BME280;33990;44.602;10.976;2022-11-06T04:54:44;101256.84;;;19.21;52.00
48200;BME280;33990;44.602;10.976;2022-11-06T04:57:12;101249.66;;;19.22;51.73
48200;BME280;33990;44.602;10.976;2022-11-06T04:59:40;101249.78;;;19.20;51.70
48200;BME280;33990;44.602;10.976;2022-11-06T05:02:07;101247.94;;;19.21;51.79
48200;BME280;33990;44.602;10.976;2022-11-06T05:04:34;101254.25;;;19.20;51.96
48200;BME280;33990;44.602;10.976;2022-11-06T05:07:02;101245.34;;;19.19;51.62
48200;BME280;33990;44.602;10.976;2022-11-06T05:09:29;101247.09;;;19.20;51.76
48200;BME280;33990;44.602;10.976;2022-11-06T05:11:56;101248.91;;;19.20;51.63
48200;BME280;33990;44.602;10.976;2022-11-06T05:14:24;101253.41;;;19.19;51.66
48200;BME280;33990;44.602;10.976;2022-11-06T05:16:51;101250.72;;;19.19;51.56
48200;BME280;33990;44.602;10.976;2022-11-06T05:19:18;101253.41;;;19.19;51.54
48200;BME280;33990;44.602;10.976;2022-11-06T05:21:46;101252.56;;;19.19;51.60
48200;BME280;33990;44.602;10.976;2022-11-06T05:24:31;101250.88;;;19.18;51.46
48200;BME280;33990;44.602;10.976;2022-11-06T05:26:58;101245.50;;;19.18;51.52
48200;BME280;33990;44.602;10.976;2022-11-06T05:29:26;101245.50;;;19.18;51.40
48200;BME280;33990;44.602;10.976;2022-11-06T05:31:53;101248.31;;;19.16;51.70
48200;BME280;33990;44.602;10.976;2022-11-06T05:34:21;101245.63;;;19.16;51.60
48200;BME280;33990;44.602;10.976;2022-11-06T05:36:48;101241.09;;;19.17;51.31
48200;BME280;33990;44.602;10.976;2022-11-06T05:39:15;101235.84;;;19.15;51.51
48200;BME280;33990;44.602;10.976;2022-11-06T05:41:42;101241.22;;;19.15;51.38
48200;BME280;33990;44.602;10.976;2022-11-06T05:44:10;101242.06;;;19.16;51.52
48200;BME280;33990;44.602;10.976;2022-11-06T05:46:37;101251.94;;;19.15;51.32
48200;BME280;33990;44.602;10.976;2022-11-06T05:49:20;101250.09;;;19.16;51.36
48200;BME280;33990;44.602;10.976;2022-11-06T05:51:47;101249.25;;;19.15;51.35
48200;BME280;33990;44.602;10.976;2022-11-06T05:54:14;101250.25;;;19.14;51.37
48200;BME280;33990;44.602;10.976;2022-11-06T05:56:42;101248.53;;;19.13;51.41
48200;BME280;33990;44.602;10.976;2022-11-06T05:59:09;101257.44;;;19.14;51.46
48200;BME280;33990;44.602;10.976;2022-11-06T06:01:36;101256.59;;;19.13;51.41
48200;BME280;33990;44.602;10.976;2022-11-06T06:04:04;101270.00;;;19.13;51.45
48200;BME280;33990;44.602;10.976;2022-11-06T06:06:32;101275.38;;;19.13;51.39
48200;BME280;33990;44.602;10.976;2022-11-06T06:08:59;101278.06;;;19.13;51.44
48200;BME280;33990;44.602;10.976;2022-11-06T06:11:26;101287.09;;;19.12;51.22
48200;BME280;33990;44.602;10.976;2022-11-06T06:13:54;101286.22;;;19.12;51.50
48200;BME280;33990;44.602;10.976;2022-11-06T06:16:21;101298.78;;;19.11;51.28
48200;BME280;33990;44.602;10.976;2022-11-06T06:18:49;101287.19;;;19.11;51.53
48200;BME280;33990;44.602;10.976;2022-11-06T06:21:17;101300.63;;;19.11;51.29
48200;BME280;33990;44.602;10.976;2022-11-06T06:23:44;101305.97;;;19.11;51.20
48200;BME280;33990;44.602;10.976;2022-11-06T06:26:11;101301.59;;;19.10;51.23
48200;BME280;33990;44.602;10.976;2022-11-06T06:28:39;101308.66;;;19.11;51.30
48200;BME280;33990;44.602;10.976;2022-11-06T06:31:06;101300.63;;;19.11;51.23
48200;BME280;33990;44.602;10.976;2022-11-06T06:33:34;101310.50;;;19.10;51.09
48200;BME280;33990;44.602;10.976;2022-11-06T06:36:03;101308.78;;;19.09;51.33
48200;BME280;33990;44.602;10.976;2022-11-06T06:38:31;101314.16;;;19.09;51.16
48200;BME280;33990;44.602;10.976;2022-11-06T06:41:02;101313.31;;;19.09;51.25
48200;BME280;33990;44.602;10.976;2022-11-06T06:43:30;101317.84;;;19.08;51.17
48200;BME280;33990;44.602;10.976;2022-11-06T06:46:06;101320.50;;;19.08;51.12
48200;BME280;33990;44.602;10.976;2022-11-06T06:48:34;101324.16;;;19.07;51.13
48200;BME280;33990;44.602;10.976;2022-11-06T06:51:02;101322.31;;;19.08;51.10
48200;BME280;33990;44.602;10.976;2022-11-06T06:53:29;101325.00;;;19.08;51.16
48200;BME280;33990;44.602;10.976;2022-11-06T06:55:58;101324.16;;;19.07;51.13
48200;BME280;33990;44.602;10.976;2022-11-06T06:58:30;101324.16;;;19.07;51.11
48200;BME280;33990;44.602;10.976;2022-11-06T07:00:59;101323.28;;;19.07;51.24
48200;BME280;33990;44.602;10.976;2022-11-06T07:03:27;101325.97;;;19.07;51.08
48200;BME280;33990;44.602;10.976;2022-11-06T07:05:56;101335.00;;;19.06;51.13
48200;BME280;33990;44.602;10.976;2022-11-06T07:08:25;101336.84;;;19.05;51.13
48200;BME280;33990;44.602;10.976;2022-11-06T07:10:58;101331.47;;;19.05;51.06
48200;BME280;33990;44.602;10.976;2022-11-06T07:13:25;101339.53;;;19.05;50.96
48200;BME280;33990;44.602;10.976;2022-11-06T07:16:02;101345.88;;;19.04;51.15
48200;BME280;33990;44.602;10.976;2022-11-06T07:18:29;101345.88;;;19.04;51.03
48200;BME280;33990;44.602;10.976;2022-11-06T07:20:56;101346.72;;;19.05;51.06
48200;BME280;33990;44.602;10.976;2022-11-06T07:23:23;101351.25;;;19.04;50.91
48200;BME280;33990;44.602;10.976;2022-11-06T07:25:51;101356.59;;;19.04;51.13
48200;BME280;33990;44.602;10.976;2022-11-06T07:28:20;101361.97;;;19.04;51.01
48200;BME280;33990;44.602;10.976;2022-11-06T07:30:47;101365.50;;;19.05;50.91
48200;BME280;33990;44.602;10.976;2022-11-06T07:33:14;101367.34;;;19.04;51.02
48200;BME280;33990;44.602;10.976;2022-11-06T07:35:43;101372.81;;;19.02;51.08
48200;BME280;33990;44.602;10.976;2022-11-06T07:38:10;101376.34;;;19.03;50.95
48200;BME280;33990;44.602;10.976;2022-11-06T07:40:38;101376.34;;;19.03;50.87
48200;BME280;33990;44.602;10.976;2022-11-06T07:43:06;101376.34;;;19.03;51.06
48200;BME280;33990;44.602;10.976;2022-11-06T07:45:34;101374.63;;;19.02;50.88
48200;BME280;33990;44.602;10.976;2022-11-06T07:48:03;101371.81;;;19.03;51.00
48200;BME280;33990;44.602;10.976;2022-11-06T07:50:31;101372.72;;;19.04;51.04
48200;BME280;33990;44.602;10.976;2022-11-06T07:53:00;101376.34;;;19.03;51.04
48200;BME280;33990;44.602;10.976;2022-11-06T07:55:29;101387.06;;;19.03;50.72
48200;BME280;33990;44.602;10.976;2022-11-06T07:57:57;101377.19;;;19.03;50.85
48200;BME280;33990;44.602;10.976;2022-11-06T08:00:25;101387.06;;;19.03;51.03
48200;BME280;33990;44.602;10.976;2022-11-06T08:02:52;101386.97;;;19.05;50.96
48200;BME280;33990;44.602;10.976;2022-11-06T08:05:20;101380.75;;;19.04;51.02
48200;BME280;33990;44.602;10.976;2022-11-06T08:07:47;101378.94;;;19.05;50.79
48200;BME280;33990;44.602;10.976;2022-11-06T08:10:14;101386.97;;;19.05;50.94
48200;BME280;33990;44.602;10.976;2022-11-06T08:12:42;101382.47;;;19.05;50.95
48200;BME280;33990;44.602;10.976;2022-11-06T08:15:09;101385.00;;;19.07;51.02
48200;BME280;33990;44.602;10.976;2022-11-06T08:17:37;101387.81;;;19.05;50.57
48200;BME280;33990;44.602;10.976;2022-11-06T08:20:04;101382.34;;;19.07;50.87
48200;BME280;33990;44.602;10.976;2022-11-06T08:22:32;101383.19;;;19.07;50.81
48200;BME280;33990;44.602;10.976;2022-11-06T08:24:59;101384.91;;;19.08;50.78
48200;BME280;33990;44.602;10.976;2022-11-06T08:27:27;101384.91;;;19.08;50.77
48200;BME280;33990;44.602;10.976;2022-11-06T08:29:54;101384.91;;;19.08;50.68
48200;BME280;33990;44.602;10.976;2022-11-06T08:32:21;101384.91;;;19.08;50.65
48200;BME280;33990;44.602;10.976;2022-11-06T08:34:49;101390.28;;;19.08;50.65
48200;BME280;33990;44.602;10.976;2022-11-06T08:37:16;101399.06;;;19.10;51.02
48200;BME280;33990;44.602;10.976;2022-11-06T08:39:43;101388.31;;;19.10;50.72
48200;BME280;33990;44.602;10.976;2022-11-06T08:42:11;101392.72;;;19.11;50.98
48200;BME280;33990;44.602;10.976;2022-11-06T08:44:38;101392.63;;;19.13;50.42
48200;BME280;33990;44.602;10.976;2022-11-06T08:47:06;101387.25;;;19.13;49.17
48200;BME280;33990;44.602;10.976;2022-11-06T08:49:33;101387.13;;;19.14;49.31
48200;BME280;33990;44.602;10.976;2022-11-06T08:52:00;101380.91;;;19.14;49.01
48200;BME280;33990;44.602;10.976;2022-11-06T08:54:27;101390.66;;;19.15;49.13
48200;BME280;33990;44.602;10.976;2022-11-06T08:56:56;101378.09;;;19.15;48.99
48200;BME280;33990;44.602;10.976;2022-11-06T08:59:23;101382.50;;;19.16;49.00
48200;BME280;33990;44.602;10.976;2022-11-06T09:01:51;101382.50;;;19.16;48.67
48200;BME280;33990;44.602;10.976;2022-11-06T09:04:18;101380.69;;;19.17;48.62
48200;BME280;33990;44.602;10.976;2022-11-06T09:06:45;101370.78;;;19.17;48.58
48200;BME280;33990;44.602;10.976;2022-11-06T09:09:13;101373.47;;;19.17;48.72
48200;BME280;33990;44.602;10.976;2022-11-06T09:11:40;101371.63;;;19.18;48.67
48200;BME280;33990;44.602;10.976;2022-11-06T09:14:09;101365.28;;;19.19;48.73
48200;BME280;33990;44.602;10.976;2022-11-06T09:16:36;101364.44;;;19.18;48.83
48200;BME280;33990;44.602;10.976;2022-11-06T09:19:03;101360.78;;;19.19;48.81
48200;BME280;33990;44.602;10.976;2022-11-06T09:21:31;101360.78;;;19.19;48.90
48200;BME280;33990;44.602;10.976;2022-11-06T09:23:58;101367.88;;;19.20;49.11
48200;BME280;33990;44.602;10.976;2022-11-06T09:26:26;101358.94;;;19.20;48.78
48200;BME280;33990;44.602;10.976;2022-11-06T09:28:53;101367.88;;;19.20;49.71
48200;BME280;33990;44.602;10.976;2022-11-06T09:31:20;101360.69;;;19.21;49.77
48200;BME280;33990;44.602;10.976;2022-11-06T09:33:47;101362.50;;;19.20;49.17
48200;BME280;33990;44.602;10.976;2022-11-06T09:36:15;101367.75;;;19.22;49.90
48200;BME280;33990;44.602;10.976;2022-11-06T09:38:42;101371.28;;;19.22;49.95
48200;BME280;33990;44.602;10.976;2022-11-06T09:41:42;101368.59;;;19.22;49.66
48200;BME280;33990;44.602;10.976;2022-11-06T09:46:45;101361.41;;;19.23;49.93
48200;BME280;33990;44.602;10.976;2022-11-06T09:52:10;101357.72;;;19.24;49.35
48200;BME280;33990;44.602;10.976;2022-11-06T09:54:57;101361.28;;;19.24;49.63
48200;BME280;33990;44.602;10.976;2022-11-06T10:00:18;101348.81;;;19.23;48.47
48200;BME280;33990;44.602;10.976;2022-11-06T10:02:49;101347.97;;;19.23;47.18
48200;BME280;33990;44.602;10.976;2022-11-06T10:07:54;101346.16;;;19.23;47.20
48200;BME280;33990;44.602;10.976;2022-11-06T10:11:02;101339.81;;;19.24;47.58
48200;BME280;33990;44.602;10.976;2022-11-06T10:16:54;101345.19;;;19.24;47.46
48200;BME280;33990;44.602;10.976;2022-11-06T10:19:49;101338.00;;;19.25;48.24
48200;BME280;33990;44.602;10.976;2022-11-06T10:22:24;101333.47;;;19.25;48.43
48200;BME280;33990;44.602;10.976;2022-11-06T10:27:39;101335.19;;;19.26;47.75
48200;BME280;33990;44.602;10.976;2022-11-06T10:30:14;101328.09;;;19.25;47.02
48200;BME280;33990;44.602;10.976;2022-11-06T10:35:50;101326.13;;;19.27;46.92
48200;BME280;33990;44.602;10.976;2022-11-06T10:38:33;101326.13;;;19.27;47.38
48200;BME280;33990;44.602;10.976;2022-11-06T10:41:02;101320.78;;;19.27;46.95
48200;BME280;33990;44.602;10.976;2022-11-06T10:43:42;101320.78;;;19.27;44.46
48200;BME280;33990;44.602;10.976;2022-11-06T10:46:38;101314.91;;;19.22;42.62
48200;BME280;33990;44.602;10.976;2022-11-06T10:58:00;101310.22;;;19.02;43.33
48200;BME280;33990;44.602;10.976;2022-11-06T11:00:30;101306.56;;;19.03;43.38
48200;BME280;33990;44.602;10.976;2022-11-06T11:03:00;101311.84;;;19.05;43.57
48200;BME280;33990;44.602;10.976;2022-11-06T11:05:39;101297.31;;;19.07;44.25
48200;BME280;33990;44.602;10.976;2022-11-06T11:08:39;101303.44;;;19.09;44.26
48200;BME280;33990;44.602;10.976;2022-11-06T11:16:22;101293.31;;;19.13;46.67
48200;BME280;33990;44.602;10.976;2022-11-06T11:18:51;101291.47;;;19.13;46.60
48200;BME280;33990;44.602;10.976;2022-11-06T11:24:12;101301.25;;;19.14;46.31
48200;BME280;33990;44.602;10.976;2022-11-06T11:26:44;101282.44;;;19.14;47.05
48200;BME280;33990;44.602;10.976;2022-11-06T11:31:51;101277.94;;;19.15;47.25
48200;BME280;33990;44.602;10.976;2022-11-06T11:34:24;101277.09;;;19.14;47.17
48200;BME280;33990;44.602;10.976;2022-11-06T11:36:59;101285.00;;;19.16;47.39
48200;BME280;33990;44.602;10.976;2022-11-06T11:39:31;101278.78;;;19.15;47.55
48200;BME280;33990;44.602;10.976;2022-11-06T11:42:30;101265.38;;;19.15;47.50
48200;BME280;33990;44.602;10.976;2022-11-06T11:47:40;101268.03;;;19.15;47.83
48200;BME280;33990;44.602;10.976;2022-11-06T11:50:30;101267.94;;;19.17;47.86
48200;BME280;33990;44.602;10.976;2022-11-06T11:53:10;101264.41;;;19.16;47.97
48200;BME280;33990;44.602;10.976;2022-11-06T11:55:43;101269.78;;;19.16;47.98
48200;BME280;33990;44.602;10.976;2022-11-06T12:00:52;101264.41;;;19.16;48.25
48200;BME280;33990;44.602;10.976;2022-11-06T12:03:21;101271.47;;;19.17;48.28
48200;BME280;33990;44.602;10.976;2022-11-06T12:05:52;101271.47;;;19.17;48.52
48200;BME280;33990;44.602;10.976;2022-11-06T12:08:23;101259.91;;;19.17;48.61
48200;BME280;33990;44.602;10.976;2022-11-06T12:10:51;101250.00;;;19.17;48.67
48200;BME280;33990;44.602;10.976;2022-11-06T12:13:21;101248.31;;;19.16;48.77
48200;BME280;33990;44.602;10.976;2022-11-06T12:18:21;101238.44;;;19.17;48.77
48200;BME280;33990;44.602;10.976;2022-11-06T12:23:46;101235.59;;;19.18;48.82
48200;BME280;33990;44.602;10.976;2022-11-06T12:29:32;101227.69;;;19.17;48.82
48200;BME280;33990;44.602;10.976;2022-11-06T12:33:02;101224.03;;;19.18;49.07
48200;BME280;33990;44.602;10.976;2022-11-06T12:35:32;101220.50;;;19.17;49.00
48200;BME280;33990;44.602;10.976;2022-11-06T12:40:44;101224.88;;;19.18;49.19
48200;BME280;33990;44.602;10.976;2022-11-06T12:46:13;101220.50;;;19.17;49.14
48200;BME280;33990;44.602;10.976;2022-11-06T12:56:58;101213.28;;;19.18;49.40
48200;BME280;33990;44.602;10.976;2022-11-06T13:05:34;101200.00;;;19.16;49.57
48200;BME280;33990;44.602;10.976;2022-11-06T13:08:18;101207.91;;;19.18;49.43
48200;BME280;33990;44.602;10.976;2022-11-06T13:13:58;101200.84;;;19.17;49.20
48200;BME280;33990;44.602;10.976;2022-11-06T13:30:14;101198.03;;;19.18;49.77
48200;BME280;33990;44.602;10.976;2022-11-06T13:32:45;101190.97;;;19.17;49.41
48200;BME280;33990;44.602;10.976;2022-11-06T13:35:20;101184.75;;;19.17;49.26
48200;BME280;33990;44.602;10.976;2022-11-06T13:37:50;101189.13;;;19.18;49.61
48200;BME280;33990;44.602;10.976;2022-11-06T13:40:29;101185.59;;;19.17;49.42
48200;BME280;33990;44.602;10.976;2022-11-06T13:45:45;101182.06;;;19.17;49.80
48200;BME280;33990;44.602;10.976;2022-11-06T13:48:28;101182.06;;;19.17;49.68
48200;BME280;33990;44.602;10.976;2022-11-06T13:54:15;101175.84;;;19.16;49.68
48200;BME280;33990;44.602;10.976;2022-11-06T13:57:02;101168.66;;;19.17;49.70
48200;BME280;33990;44.602;10.976;2022-11-06T14:07:57;101171.31;;;19.17;49.51
48200;BME280;33990;44.602;10.976;2022-11-06T14:10:35;101177.53;;;19.17;49.49
48200;BME280;33990;44.602;10.976;2022-11-06T14:13:05;101178.53;;;19.16;49.60
48200;BME280;33990;44.602;10.976;2022-11-06T14:15:37;101181.22;;;19.16;49.48
48200;BME280;33990;44.602;10.976;2022-11-06T14:18:19;101178.53;;;19.16;49.55
48200;BME280;33990;44.602;10.976;2022-11-06T14:20:47;101183.91;;;19.16;49.44
48200;BME280;33990;44.602;10.976;2022-11-06T14:28:40;101179.38;;;19.17;49.43
48200;BME280;33990;44.602;10.976;2022-11-06T14:31:09;101183.91;;;19.16;49.53
48200;BME280;33990;44.602;10.976;2022-11-06T14:36:31;101177.66;;;19.16;49.66
48200;BME280;33990;44.602;10.976;2022-11-06T14:38:59;101180.34;;;19.16;49.48
48200;BME280;33990;44.602;10.976;2022-11-06T14:44:22;101174.97;;;19.16;49.31
48200;BME280;33990;44.602;10.976;2022-11-06T14:46:59;101165.09;;;19.16;49.42
48200;BME280;33990;44.602;10.976;2022-11-06T14:49:37;101163.38;;;19.15;49.52
48200;BME280;33990;44.602;10.976;2022-11-06T14:52:13;101172.28;;;19.16;49.68
48200;BME280;33990;44.602;10.976;2022-11-06T14:55:02;101161.69;;;19.14;49.17
48200;BME280;33990;44.602;10.976;2022-11-06T15:00:06;101169.59;;;19.16;49.63
48200;BME280;33990;44.602;10.976;2022-11-06T15:02:35;101160.69;;;19.15;49.51
48200;BME280;33990;44.602;10.976;2022-11-06T15:05:07;101171.44;;;19.15;49.54
48200;BME280;33990;44.602;10.976;2022-11-06T15:10:56;101173.25;;;19.15;49.44
48200;BME280;33990;44.602;10.976;2022-11-06T15:13:25;101174.13;;;19.15;49.49
48200;BME280;33990;44.602;10.976;2022-11-06T15:16:00;101169.72;;;19.14;49.23
48200;BME280;33990;44.602;10.976;2022-11-06T15:18:29;101176.78;;;19.15;49.64
48200;BME280;33990;44.602;10.976;2022-11-06T15:21:06;101175.94;;;19.15;49.63
48200;BME280;33990;44.602;10.976;2022-11-06T15:23:55;101173.25;;;19.15;49.56
48200;BME280;33990;44.602;10.976;2022-11-06T15:26:40;101173.25;;;19.15;49.51
48200;BME280;33990;44.602;10.976;2022-11-06T15:29:23;101166.06;;;19.15;49.52
48200;BME280;33990;44.602;10.976;2022-11-06T15:31:57;101170.56;;;19.15;49.59
48200;BME280;33990;44.602;10.976;2022-11-06T15:34:31;101167.03;;;19.14;49.47
48200;BME280;33990;44.602;10.976;2022-11-06T15:39:53;101166.19;;;19.14;49.64
48200;BME280;33990;44.602;10.976;2022-11-06T15:42:30;101171.56;;;19.14;49.63
48200;BME280;33990;44.602;10.976;2022-11-06T15:45:29;101174.25;;;19.14;49.62
48200;BME280;33990;44.602;10.976;2022-11-06T15:48:21;101169.88;;;19.13;49.64
48200;BME280;33990;44.602;10.976;2022-11-06T15:50:47;101180.47;;;19.14;49.56
48200;BME280;33990;44.602;10.976;2022-11-06T15:53:23;101179.63;;;19.14;49.83
48200;BME280;33990;44.602;10.976;2022-11-06T15:56:06;101174.25;;;19.14;49.70
48200;BME280;33990;44.602;10.976;2022-11-06T15:58:36;101170.81;;;19.12;49.65